sensor_id;sensor_type;location;lat;lon;timestamp;P1;durP1;ratioP1;P2;durP2;ratioP2
12308;SDS011;6217;48.150;17.142;2022-12-18T00:01:24;22.60;;;12.43;;
12308;SDS011;6217;48.150;17.142;2022-12-18T00:05:32;21.40;;;12.30;;
12308;SDS011;6217;48.150;17.142;2022-12-18T00:09:38;26.02;;;12.35;;
12308;SDS011;6217;48.150;17.142;2022-12-18T00:13:44;26.20;;;11.70;;
12308;SDS011;6217;48.150;17.142;2022-12-18T00:17:50;24.92;;;10.80;;
12308;SDS011;6217;48.150;17.142;2022-12-18T00:21:56;22.30;;;12.07;;
12308;SDS011;6217;48.150;17.142;2022-12-18T00:26:04;21.35;;;10.95;;
12308;SDS011;6217;48.150;17.142;2022-12-18T00:30:14;23.48;;;11.43;;
12308;SDS011;6217;48.150;17.142;2022-12-18T00:34:20;20.67;;;11.15;;
12308;SDS011;6217;48.150;17.142;2022-12-18T00:38:26;26.63;;;12.68;;
12308;SDS011;6217;48.150;17.142;2022-12-18T00:42:32;25.77;;;13.23;;
12308;SDS011;6217;48.150;17.142;2022-12-18T00:46:56;21.13;;;11.02;;
12308;SDS011;6217;48.150;17.142;2022-12-18T00:51:02;24.40;;;12.70;;
12308;SDS011;6217;48.150;17.142;2022-12-18T00:55:08;26.23;;;11.50;;
12308;SDS011;6217;48.150;17.142;2022-12-18T00:59:15;21.60;;;11.95;;
12308;SDS011;6217;48.150;17.142;2022-12-18T01:03:21;30.20;;;14.93;;
12308;SDS011;6217;48.150;17.142;2022-12-18T01:07:27;25.92;;;12.88;;
12308;SDS011;6217;48.150;17.142;2022-12-18T01:11:33;22.35;;;12.77;;
12308;SDS011;6217;48.150;17.142;2022-12-18T01:15:39;23.63;;;12.57;;
12308;SDS011;6217;48.150;17.142;2022-12-18T01:19:45;25.50;;;12.10;;
12308;SDS011;6217;48.150;17.142;2022-12-18T01:23:51;24.60;;;12.85;;
12308;SDS011;6217;48.150;17.142;2022-12-18T01:27:59;23.70;;;13.23;;
12308;SDS011;6217;48.150;17.142;2022-12-18T01:32:04;29.23;;;14.38;;
12308;SDS011;6217;48.150;17.142;2022-12-18T01:36:17;22.98;;;13.15;;
12308;SDS011;6217;48.150;17.142;2022-12-18T01:40:27;22.50;;;12.27;;
12308;SDS011;6217;48.150;17.142;2022-12-18T01:49:06;25.30;;;13.35;;
12308;SDS011;6217;48.150;17.142;2022-12-18T01:53:14;26.40;;;13.82;;
12308;SDS011;6217;48.150;17.142;2022-12-18T01:57:22;23.98;;;14.05;;
12308;SDS011;6217;48.150;17.142;2022-12-18T02:01:29;29.73;;;13.57;;
12308;SDS011;6217;48.150;17.142;2022-12-18T02:05:58;24.98;;;13.13;;
12308;SDS011;6217;48.150;17.142;2022-12-18T02:10:31;27.08;;;14.10;;
12308;SDS011;6217;48.150;17.142;2022-12-18T02:14:59;31.60;;;15.65;;
12308;SDS011;6217;48.150;17.142;2022-12-18T02:28:30;25.15;;;14.18;;
12308;SDS011;6217;48.150;17.142;2022-12-18T02:32:44;28.25;;;16.50;;
12308;SDS011;6217;48.150;17.142;2022-12-18T02:36:54;32.78;;;16.83;;
12308;SDS011;6217;48.150;17.142;2022-12-18T02:41:02;30.27;;;14.88;;
12308;SDS011;6217;48.150;17.142;2022-12-18T02:45:10;26.92;;;15.32;;
12308;SDS011;6217;48.150;17.142;2022-12-18T02:49:22;25.98;;;14.93;;
12308;SDS011;6217;48.150;17.142;2022-12-18T02:53:33;30.52;;;15.85;;
12308;SDS011;6217;48.150;17.142;2022-12-18T02:57:46;29.58;;;14.85;;
12308;SDS011;6217;48.150;17.142;2022-12-18T03:02:22;29.73;;;14.68;;
12308;SDS011;6217;48.150;17.142;2022-12-18T03:06:39;33.03;;;15.77;;
12308;SDS011;6217;48.150;17.142;2022-12-18T03:11:09;29.08;;;15.30;;
12308;SDS011;6217;48.150;17.142;2022-12-18T03:15:19;25.75;;;14.18;;
12308;SDS011;6217;48.150;17.142;2022-12-18T03:19:38;31.10;;;13.90;;
12308;SDS011;6217;48.150;17.142;2022-12-18T03:23:48;31.00;;;15.55;;
12308;SDS011;6217;48.150;17.142;2022-12-18T03:27:58;29.48;;;15.70;;
12308;SDS011;6217;48.150;17.142;2022-12-18T03:32:06;25.50;;;14.80;;
12308;SDS011;6217;48.150;17.142;2022-12-18T03:40:24;28.92;;;14.98;;
12308;SDS011;6217;48.150;17.142;2022-12-18T03:44:40;30.10;;;14.48;;
12308;SDS011;6217;48.150;17.142;2022-12-18T03:49:07;27.45;;;14.60;;
12308;SDS011;6217;48.150;17.142;2022-12-18T03:53:58;30.17;;;15.40;;
12308;SDS011;6217;48.150;17.142;2022-12-18T03:58:11;36.22;;;17.13;;
12308;SDS011;6217;48.150;17.142;2022-12-18T04:02:31;38.42;;;17.73;;
12308;SDS011;6217;48.150;17.142;2022-12-18T04:06:40;29.88;;;16.77;;
12308;SDS011;6217;48.150;17.142;2022-12-18T04:10:50;29.60;;;16.10;;
12308;SDS011;6217;48.150;17.142;2022-12-18T04:14:57;32.22;;;15.25;;
12308;SDS011;6217;48.150;17.142;2022-12-18T04:19:03;31.42;;;15.90;;
12308;SDS011;6217;48.150;17.142;2022-12-18T04:23:15;33.97;;;16.90;;
12308;SDS011;6217;48.150;17.142;2022-12-18T04:27:21;30.40;;;16.67;;
12308;SDS011;6217;48.150;17.142;2022-12-18T04:31:29;29.30;;;15.73;;
12308;SDS011;6217;48.150;17.142;2022-12-18T04:35:35;37.38;;;17.35;;
12308;SDS011;6217;48.150;17.142;2022-12-18T04:39:41;32.50;;;16.98;;
12308;SDS011;6217;48.150;17.142;2022-12-18T04:43:54;35.00;;;17.40;;
12308;SDS011;6217;48.150;17.142;2022-12-18T04:48:00;30.52;;;16.15;;
12308;SDS011;6217;48.150;17.142;2022-12-18T04:52:07;38.20;;;17.95;;
12308;SDS011;6217;48.150;17.142;2022-12-18T04:56:13;28.10;;;16.00;;
12308;SDS011;6217;48.150;17.142;2022-12-18T05:00:20;35.28;;;18.20;;
12308;SDS011;6217;48.150;17.142;2022-12-18T05:04:26;33.78;;;17.08;;
12308;SDS011;6217;48.150;17.142;2022-12-18T05:08:32;35.65;;;18.75;;
12308;SDS011;6217;48.150;17.142;2022-12-18T05:12:38;38.15;;;17.92;;
12308;SDS011;6217;48.150;17.142;2022-12-18T05:17:03;31.13;;;16.60;;
12308;SDS011;6217;48.150;17.142;2022-12-18T05:21:08;39.22;;;17.90;;
12308;SDS011;6217;48.150;17.142;2022-12-18T05:25:14;31.63;;;16.70;;
12308;SDS011;6217;48.150;17.142;2022-12-18T05:29:20;34.40;;;17.48;;
12308;SDS011;6217;48.150;17.142;2022-12-18T05:33:26;36.85;;;18.10;;
12308;SDS011;6217;48.150;17.142;2022-12-18T05:37:34;35.53;;;18.65;;
12308;SDS011;6217;48.150;17.142;2022-12-18T05:41:40;30.23;;;17.05;;
12308;SDS011;6217;48.150;17.142;2022-12-18T05:45:46;35.50;;;17.08;;
12308;SDS011;6217;48.150;17.142;2022-12-18T05:49:52;35.85;;;17.63;;
12308;SDS011;6217;48.150;17.142;2022-12-18T05:53:58;34.03;;;16.48;;
12308;SDS011;6217;48.150;17.142;2022-12-18T05:58:04;30.25;;;17.38;;
12308;SDS011;6217;48.150;17.142;2022-12-18T06:02:11;42.25;;;19.05;;
12308;SDS011;6217;48.150;17.142;2022-12-18T06:06:18;37.08;;;19.50;;
12308;SDS011;6217;48.150;17.142;2022-12-18T06:10:27;38.58;;;18.63;;
12308;SDS011;6217;48.150;17.142;2022-12-18T06:14:33;39.22;;;19.50;;
12308;SDS011;6217;48.150;17.142;2022-12-18T06:18:38;37.95;;;18.30;;
12308;SDS011;6217;48.150;17.142;2022-12-18T06:22:44;44.22;;;22.00;;
12308;SDS011;6217;48.150;17.142;2022-12-18T06:26:50;43.38;;;19.35;;
12308;SDS011;6217;48.150;17.142;2022-12-18T06:30:56;45.47;;;20.35;;
12308;SDS011;6217;48.150;17.142;2022-12-18T06:35:01;41.92;;;21.90;;
12308;SDS011;6217;48.150;17.142;2022-12-18T06:39:07;40.38;;;20.35;;
12308;SDS011;6217;48.150;17.142;2022-12-18T06:43:13;38.88;;;19.38;;
12308;SDS011;6217;48.150;17.142;2022-12-18T06:47:19;43.15;;;22.20;;
12308;SDS011;6217;48.150;17.142;2022-12-18T06:51:25;42.80;;;20.48;;
12308;SDS011;6217;48.150;17.142;2022-12-18T06:55:31;47.33;;;20.50;;
12308;SDS011;6217;48.150;17.142;2022-12-18T06:59:36;38.80;;;20.23;;
12308;SDS011;6217;48.150;17.142;2022-12-18T07:03:42;37.85;;;19.88;;
12308;SDS011;6217;48.150;17.142;2022-12-18T07:07:48;41.13;;;19.58;;
12308;SDS011;6217;48.150;17.142;2022-12-18T07:11:54;46.17;;;21.23;;
12308;SDS011;6217;48.150;17.142;2022-12-18T07:16:03;47.72;;;21.10;;
12308;SDS011;6217;48.150;17.142;2022-12-18T07:20:13;47.35;;;20.60;;
12308;SDS011;6217;48.150;17.142;2022-12-18T07:24:19;46.53;;;21.48;;
12308;SDS011;6217;48.150;17.142;2022-12-18T07:28:25;39.13;;;20.38;;
12308;SDS011;6217;48.150;17.142;2022-12-18T07:32:31;52.38;;;22.92;;
12308;SDS011;6217;48.150;17.142;2022-12-18T07:36:37;48.22;;;21.83;;
12308;SDS011;6217;48.150;17.142;2022-12-18T07:40:42;51.55;;;23.52;;
12308;SDS011;6217;48.150;17.142;2022-12-18T07:44:48;46.75;;;22.58;;
12308;SDS011;6217;48.150;17.142;2022-12-18T07:48:54;44.53;;;21.45;;
12308;SDS011;6217;48.150;17.142;2022-12-18T07:53:00;50.10;;;22.45;;
12308;SDS011;6217;48.150;17.142;2022-12-18T07:57:08;48.95;;;22.80;;
12308;SDS011;6217;48.150;17.142;2022-12-18T08:01:14;40.95;;;19.27;;
12308;SDS011;6217;48.150;17.142;2022-12-18T08:05:20;45.30;;;21.50;;
12308;SDS011;6217;48.150;17.142;2022-12-18T08:09:26;44.17;;;20.73;;
12308;SDS011;6217;48.150;17.142;2022-12-18T08:13:32;39.00;;;20.92;;
12308;SDS011;6217;48.150;17.142;2022-12-18T08:17:37;38.17;;;20.20;;
12308;SDS011;6217;48.150;17.142;2022-12-18T08:21:43;44.78;;;21.95;;
12308;SDS011;6217;48.150;17.142;2022-12-18T08:25:49;42.88;;;21.67;;
12308;SDS011;6217;48.150;17.142;2022-12-18T08:29:56;45.83;;;24.83;;
12308;SDS011;6217;48.150;17.142;2022-12-18T08:34:02;45.63;;;22.13;;
12308;SDS011;6217;48.150;17.142;2022-12-18T08:38:08;45.03;;;23.05;;
12308;SDS011;6217;48.150;17.142;2022-12-18T08:42:14;45.65;;;24.35;;
12308;SDS011;6217;48.150;17.142;2022-12-18T08:46:39;40.67;;;22.17;;
12308;SDS011;6217;48.150;17.142;2022-12-18T08:50:59;42.35;;;22.33;;
12308;SDS011;6217;48.150;17.142;2022-12-18T08:55:05;47.47;;;22.63;;
12308;SDS011;6217;48.150;17.142;2022-12-18T08:59:11;44.40;;;22.02;;
12308;SDS011;6217;48.150;17.142;2022-12-18T09:03:17;42.58;;;20.58;;
12308;SDS011;6217;48.150;17.142;2022-12-18T09:07:24;49.92;;;23.88;;
12308;SDS011;6217;48.150;17.142;2022-12-18T09:11:30;46.90;;;22.35;;
12308;SDS011;6217;48.150;17.142;2022-12-18T09:15:43;42.50;;;20.45;;
12308;SDS011;6217;48.150;17.142;2022-12-18T09:19:50;36.95;;;20.08;;
12308;SDS011;6217;48.150;17.142;2022-12-18T09:23:56;36.92;;;21.65;;
12308;SDS011;6217;48.150;17.142;2022-12-18T09:28:03;36.88;;;21.00;;
12308;SDS011;6217;48.150;17.142;2022-12-18T09:32:15;44.70;;;22.90;;
12308;SDS011;6217;48.150;17.142;2022-12-18T09:36:21;43.25;;;24.08;;
12308;SDS011;6217;48.150;17.142;2022-12-18T09:40:28;43.88;;;22.27;;
12308;SDS011;6217;48.150;17.142;2022-12-18T09:44:41;41.75;;;24.00;;
12308;SDS011;6217;48.150;17.142;2022-12-18T09:48:51;45.42;;;24.60;;
12308;SDS011;6217;48.150;17.142;2022-12-18T09:52:59;50.60;;;26.20;;
12308;SDS011;6217;48.150;17.142;2022-12-18T09:57:15;45.30;;;24.63;;
12308;SDS011;6217;48.150;17.142;2022-12-18T10:01:29;53.15;;;23.60;;
12308;SDS011;6217;48.150;17.142;2022-12-18T10:05:39;44.20;;;25.90;;
12308;SDS011;6217;48.150;17.142;2022-12-18T10:10:02;42.73;;;22.87;;
12308;SDS011;6217;48.150;17.142;2022-12-18T10:14:45;47.05;;;23.88;;
12308;SDS011;6217;48.150;17.142;2022-12-18T10:27:36;39.03;;;20.05;;
12308;SDS011;6217;48.150;17.142;2022-12-18T10:31:42;36.65;;;20.30;;
12308;SDS011;6217;48.150;17.142;2022-12-18T10:35:49;44.88;;;22.70;;
12308;SDS011;6217;48.150;17.142;2022-12-18T10:44:16;41.70;;;20.83;;
12308;SDS011;6217;48.150;17.142;2022-12-18T10:48:27;38.83;;;20.58;;
12308;SDS011;6217;48.150;17.142;2022-12-18T10:52:34;37.80;;;20.70;;
12308;SDS011;6217;48.150;17.142;2022-12-18T10:56:40;40.17;;;21.23;;
12308;SDS011;6217;48.150;17.142;2022-12-18T11:00:50;47.72;;;24.13;;
12308;SDS011;6217;48.150;17.142;2022-12-18T11:09:34;38.50;;;19.67;;
12308;SDS011;6217;48.150;17.142;2022-12-18T11:13:41;40.28;;;21.40;;
12308;SDS011;6217;48.150;17.142;2022-12-18T11:18:03;38.43;;;22.30;;
12308;SDS011;6217;48.150;17.142;2022-12-18T11:22:23;47.03;;;26.13;;
12308;SDS011;6217;48.150;17.142;2022-12-18T11:26:40;50.67;;;28.05;;
12308;SDS011;6217;48.150;17.142;2022-12-18T11:30:48;43.50;;;27.58;;
12308;SDS011;6217;48.150;17.142;2022-12-18T11:34:57;42.42;;;24.70;;
12308;SDS011;6217;48.150;17.142;2022-12-18T11:39:38;49.30;;;28.60;;
12308;SDS011;6217;48.150;17.142;2022-12-18T11:43:52;41.08;;;26.73;;
12308;SDS011;6217;48.150;17.142;2022-12-18T11:48:12;42.58;;;25.83;;
12308;SDS011;6217;48.150;17.142;2022-12-18T11:52:28;45.85;;;25.67;;
12308;SDS011;6217;48.150;17.142;2022-12-18T12:05:49;36.70;;;18.63;;
12308;SDS011;6217;48.150;17.142;2022-12-18T12:10:19;34.42;;;19.75;;
12308;SDS011;6217;48.150;17.142;2022-12-18T12:32:45;34.77;;;17.67;;
12308;SDS011;6217;48.150;17.142;2022-12-18T12:41:13;34.20;;;16.13;;
12308;SDS011;6217;48.150;17.142;2022-12-18T12:50:06;33.95;;;16.83;;
12308;SDS011;6217;48.150;17.142;2022-12-18T12:54:21;31.58;;;16.27;;
12308;SDS011;6217;48.150;17.142;2022-12-18T13:02:50;36.53;;;18.20;;
12308;SDS011;6217;48.150;17.142;2022-12-18T13:11:35;31.75;;;17.48;;
12308;SDS011;6217;48.150;17.142;2022-12-18T13:16:07;35.33;;;17.67;;
12308;SDS011;6217;48.150;17.142;2022-12-18T13:20:14;32.92;;;17.05;;
12308;SDS011;6217;48.150;17.142;2022-12-18T13:24:27;34.85;;;19.55;;
12308;SDS011;6217;48.150;17.142;2022-12-18T13:37:39;31.77;;;17.17;;
12308;SDS011;6217;48.150;17.142;2022-12-18T13:41:54;37.70;;;18.60;;
12308;SDS011;6217;48.150;17.142;2022-12-18T13:46:43;35.38;;;16.60;;
12308;SDS011;6217;48.150;17.142;2022-12-18T13:50:55;28.17;;;15.85;;
12308;SDS011;6217;48.150;17.142;2022-12-18T13:55:06;31.70;;;17.35;;
12308;SDS011;6217;48.150;17.142;2022-12-18T14:03:28;33.78;;;16.13;;
12308;SDS011;6217;48.150;17.142;2022-12-18T14:07:35;30.02;;;17.45;;
12308;SDS011;6217;48.150;17.142;2022-12-18T14:11:46;29.75;;;17.13;;
12308;SDS011;6217;48.150;17.142;2022-12-18T14:15:53;37.92;;;17.13;;
12308;SDS011;6217;48.150;17.142;2022-12-18T14:20:00;33.22;;;18.23;;
12308;SDS011;6217;48.150;17.142;2022-12-18T14:24:16;39.58;;;17.70;;
12308;SDS011;6217;48.150;17.142;2022-12-18T14:28:26;38.20;;;19.90;;
12308;SDS011;6217;48.150;17.142;2022-12-18T14:32:32;36.55;;;17.60;;
12308;SDS011;6217;48.150;17.142;2022-12-18T14:36:46;51.03;;;24.90;;
12308;SDS011;6217;48.150;17.142;2022-12-18T14:49:46;55.03;;;27.45;;
12308;SDS011;6217;48.150;17.142;2022-12-18T14:53:58;51.45;;;23.92;;
12308;SDS011;6217;48.150;17.142;2022-12-18T14:58:10;49.22;;;26.17;;
12308;SDS011;6217;48.150;17.142;2022-12-18T15:02:22;60.72;;;27.83;;
12308;SDS011;6217;48.150;17.142;2022-12-18T15:06:32;55.72;;;26.55;;
12308;SDS011;6217;48.150;17.142;2022-12-18T15:10:45;53.85;;;25.70;;
12308;SDS011;6217;48.150;17.142;2022-12-18T15:14:55;55.83;;;26.45;;
12308;SDS011;6217;48.150;17.142;2022-12-18T15:19:03;51.60;;;28.33;;
12308;SDS011;6217;48.150;17.142;2022-12-18T15:23:21;58.83;;;29.55;;
12308;SDS011;6217;48.150;17.142;2022-12-18T15:27:35;54.97;;;28.02;;
12308;SDS011;6217;48.150;17.142;2022-12-18T15:31:57;51.42;;;28.35;;
12308;SDS011;6217;48.150;17.142;2022-12-18T15:36:11;64.22;;;29.50;;
12308;SDS011;6217;48.150;17.142;2022-12-18T15:44:28;53.65;;;26.48;;
12308;SDS011;6217;48.150;17.142;2022-12-18T15:48:35;54.55;;;28.23;;
12308;SDS011;6217;48.150;17.142;2022-12-18T15:52:46;53.30;;;24.48;;
12308;SDS011;6217;48.150;17.142;2022-12-18T15:56:54;48.78;;;26.33;;
12308;SDS011;6217;48.150;17.142;2022-12-18T16:01:19;50.17;;;24.83;;
12308;SDS011;6217;48.150;17.142;2022-12-18T16:05:27;50.63;;;23.67;;
12308;SDS011;6217;48.150;17.142;2022-12-18T16:09:33;53.95;;;24.73;;
12308;SDS011;6217;48.150;17.142;2022-12-18T16:13:39;55.42;;;25.85;;
12308;SDS011;6217;48.150;17.142;2022-12-18T16:17:45;56.17;;;28.60;;
12308;SDS011;6217;48.150;17.142;2022-12-18T16:21:56;54.63;;;28.35;;
12308;SDS011;6217;48.150;17.142;2022-12-18T16:26:05;54.88;;;26.45;;
12308;SDS011;6217;48.150;17.142;2022-12-18T16:30:18;60.88;;;30.23;;
12308;SDS011;6217;48.150;17.142;2022-12-18T16:34:29;64.65;;;31.48;;
12308;SDS011;6217;48.150;17.142;2022-12-18T16:38:42;53.38;;;25.83;;
12308;SDS011;6217;48.150;17.142;2022-12-18T16:42:48;62.28;;;32.95;;
12308;SDS011;6217;48.150;17.142;2022-12-18T16:46:54;55.17;;;27.50;;
12308;SDS011;6217;48.150;17.142;2022-12-18T16:51:01;57.20;;;28.88;;
12308;SDS011;6217;48.150;17.142;2022-12-18T16:55:13;57.85;;;26.35;;
12308;SDS011;6217;48.150;17.142;2022-12-18T16:59:19;56.28;;;26.90;;
12308;SDS011;6217;48.150;17.142;2022-12-18T17:03:25;55.17;;;26.30;;
12308;SDS011;6217;48.150;17.142;2022-12-18T17:07:32;60.20;;;31.20;;
12308;SDS011;6217;48.150;17.142;2022-12-18T17:11:37;55.85;;;29.90;;
12308;SDS011;6217;48.150;17.142;2022-12-18T17:15:43;59.85;;;29.67;;
12308;SDS011;6217;48.150;17.142;2022-12-18T17:19:49;63.50;;;31.60;;
12308;SDS011;6217;48.150;17.142;2022-12-18T17:23:59;62.03;;;29.27;;
12308;SDS011;6217;48.150;17.142;2022-12-18T17:28:06;66.60;;;31.75;;
12308;SDS011;6217;48.150;17.142;2022-12-18T17:32:11;59.55;;;30.42;;
12308;SDS011;6217;48.150;17.142;2022-12-18T17:36:19;60.30;;;31.50;;
12308;SDS011;6217;48.150;17.142;2022-12-18T17:40:25;62.20;;;29.55;;
12308;SDS011;6217;48.150;17.142;2022-12-18T17:44:31;62.67;;;30.00;;
12308;SDS011;6217;48.150;17.142;2022-12-18T17:48:38;58.90;;;30.27;;
12308;SDS011;6217;48.150;17.142;2022-12-18T17:52:44;58.80;;;27.83;;
12308;SDS011;6217;48.150;17.142;2022-12-18T17:56:50;50.80;;;26.25;;
12308;SDS011;6217;48.150;17.142;2022-12-18T18:00:56;60.35;;;28.85;;
12308;SDS011;6217;48.150;17.142;2022-12-18T18:05:03;58.45;;;30.02;;
12308;SDS011;6217;48.150;17.142;2022-12-18T18:09:09;64.20;;;34.28;;
12308;SDS011;6217;48.150;17.142;2022-12-18T18:13:19;71.05;;;32.22;;
12308;SDS011;6217;48.150;17.142;2022-12-18T18:17:47;60.90;;;30.98;;
12308;SDS011;6217;48.150;17.142;2022-12-18T18:21:53;59.72;;;28.55;;
12308;SDS011;6217;48.150;17.142;2022-12-18T18:26:05;55.70;;;27.67;;
12308;SDS011;6217;48.150;17.142;2022-12-18T18:30:13;60.00;;;26.85;;
12308;SDS011;6217;48.150;17.142;2022-12-18T18:34:20;60.53;;;28.58;;
12308;SDS011;6217;48.150;17.142;2022-12-18T18:38:30;59.47;;;30.63;;
12308;SDS011;6217;48.150;17.142;2022-12-18T18:42:36;54.20;;;26.02;;
12308;SDS011;6217;48.150;17.142;2022-12-18T18:46:41;55.75;;;27.75;;
12308;SDS011;6217;48.150;17.142;2022-12-18T18:50:54;62.67;;;28.35;;
12308;SDS011;6217;48.150;17.142;2022-12-18T18:55:08;64.78;;;27.92;;
12308;SDS011;6217;48.150;17.142;2022-12-18T18:59:14;63.47;;;31.60;;
12308;SDS011;6217;48.150;17.142;2022-12-18T19:03:20;60.40;;;28.88;;
12308;SDS011;6217;48.150;17.142;2022-12-18T19:07:26;62.30;;;30.27;;
12308;SDS011;6217;48.150;17.142;2022-12-18T19:11:32;55.47;;;28.75;;
12308;SDS011;6217;48.150;17.142;2022-12-18T19:16:03;65.25;;;29.30;;
12308;SDS011;6217;48.150;17.142;2022-12-18T19:20:11;56.25;;;26.02;;
12308;SDS011;6217;48.150;17.142;2022-12-18T19:24:17;56.55;;;28.30;;
12308;SDS011;6217;48.150;17.142;2022-12-18T19:28:22;62.47;;;27.73;;
12308;SDS011;6217;48.150;17.142;2022-12-18T19:32:32;60.70;;;28.13;;
12308;SDS011;6217;48.150;17.142;2022-12-18T19:36:38;61.97;;;28.40;;
12308;SDS011;6217;48.150;17.142;2022-12-18T19:40:45;60.47;;;27.95;;
12308;SDS011;6217;48.150;17.142;2022-12-18T19:44:51;59.10;;;27.88;;
12308;SDS011;6217;48.150;17.142;2022-12-18T19:48:57;62.33;;;29.23;;
12308;SDS011;6217;48.150;17.142;2022-12-18T19:53:03;55.00;;;27.38;;
12308;SDS011;6217;48.150;17.142;2022-12-18T19:57:09;54.90;;;27.48;;
12308;SDS011;6217;48.150;17.142;2022-12-18T20:01:17;58.13;;;29.23;;
12308;SDS011;6217;48.150;17.142;2022-12-18T20:05:23;59.15;;;27.88;;
12308;SDS011;6217;48.150;17.142;2022-12-18T20:09:32;58.78;;;30.42;;
12308;SDS011;6217;48.150;17.142;2022-12-18T20:13:37;63.88;;;33.70;;
12308;SDS011;6217;48.150;17.142;2022-12-18T20:17:43;61.67;;;33.47;;
12308;SDS011;6217;48.150;17.142;2022-12-18T20:21:49;61.17;;;31.38;;
12308;SDS011;6217;48.150;17.142;2022-12-18T20:25:55;42.33;;;22.67;;
12308;SDS011;6217;48.150;17.142;2022-12-18T20:30:01;67.72;;;32.97;;
12308;SDS011;6217;48.150;17.142;2022-12-18T20:34:07;69.05;;;35.30;;
12308;SDS011;6217;48.150;17.142;2022-12-18T20:38:13;61.70;;;32.67;;
12308;SDS011;6217;48.150;17.142;2022-12-18T20:42:19;57.50;;;29.77;;
12308;SDS011;6217;48.150;17.142;2022-12-18T20:46:27;61.10;;;31.75;;
12308;SDS011;6217;48.150;17.142;2022-12-18T20:50:33;71.18;;;35.58;;
12308;SDS011;6217;48.150;17.142;2022-12-18T20:54:38;70.85;;;36.88;;
12308;SDS011;6217;48.150;17.142;2022-12-18T20:58:44;75.85;;;39.30;;
12308;SDS011;6217;48.150;17.142;2022-12-18T21:02:51;73.45;;;36.22;;
12308;SDS011;6217;48.150;17.142;2022-12-18T21:06:57;68.53;;;36.72;;
12308;SDS011;6217;48.150;17.142;2022-12-18T21:15:41;74.82;;;39.67;;
12308;SDS011;6217;48.150;17.142;2022-12-18T21:19:46;68.78;;;34.22;;
12308;SDS011;6217;48.150;17.142;2022-12-18T21:23:52;75.30;;;35.35;;
12308;SDS011;6217;48.150;17.142;2022-12-18T21:27:58;72.45;;;34.15;;
12308;SDS011;6217;48.150;17.142;2022-12-18T21:32:07;74.65;;;36.30;;
12308;SDS011;6217;48.150;17.142;2022-12-18T21:36:37;76.50;;;39.77;;
12308;SDS011;6217;48.150;17.142;2022-12-18T21:40:45;71.78;;;36.08;;
12308;SDS011;6217;48.150;17.142;2022-12-18T21:44:52;78.00;;;36.10;;
12308;SDS011;6217;48.150;17.142;2022-12-18T21:48:59;76.38;;;37.80;;
12308;SDS011;6217;48.150;17.142;2022-12-18T21:53:05;83.35;;;37.28;;
12308;SDS011;6217;48.150;17.142;2022-12-18T21:57:10;71.95;;;34.97;;
12308;SDS011;6217;48.150;17.142;2022-12-18T22:01:17;78.57;;;32.22;;
12308;SDS011;6217;48.150;17.142;2022-12-18T22:05:23;69.82;;;36.40;;
12308;SDS011;6217;48.150;17.142;2022-12-18T22:09:28;67.82;;;33.25;;
12308;SDS011;6217;48.150;17.142;2022-12-18T22:13:35;77.93;;;34.33;;
12308;SDS011;6217;48.150;17.142;2022-12-18T22:17:41;72.93;;;34.70;;
12308;SDS011;6217;48.150;17.142;2022-12-18T22:21:53;77.43;;;38.63;;
12308;SDS011;6217;48.150;17.142;2022-12-18T22:25:59;80.05;;;39.10;;
12308;SDS011;6217;48.150;17.142;2022-12-18T22:30:05;79.57;;;35.35;;
12308;SDS011;6217;48.150;17.142;2022-12-18T22:34:12;65.60;;;33.72;;
12308;SDS011;6217;48.150;17.142;2022-12-18T22:38:18;71.63;;;33.95;;
12308;SDS011;6217;48.150;17.142;2022-12-18T22:42:23;75.72;;;37.00;;
12308;SDS011;6217;48.150;17.142;2022-12-18T22:46:30;85.53;;;38.50;;
12308;SDS011;6217;48.150;17.142;2022-12-18T22:50:41;81.72;;;41.60;;
12308;SDS011;6217;48.150;17.142;2022-12-18T22:54:47;78.13;;;39.75;;
12308;SDS011;6217;48.150;17.142;2022-12-18T22:58:52;81.10;;;36.58;;
12308;SDS011;6217;48.150;17.142;2022-12-18T23:03:06;77.53;;;36.40;;
12308;SDS011;6217;48.150;17.142;2022-12-18T23:07:14;84.50;;;38.65;;
12308;SDS011;6217;48.150;17.142;2022-12-18T23:11:24;90.28;;;41.00;;
12308;SDS011;6217;48.150;17.142;2022-12-18T23:15:30;77.40;;;38.00;;
12308;SDS011;6217;48.150;17.142;2022-12-18T23:19:36;88.13;;;40.53;;
12308;SDS011;6217;48.150;17.142;2022-12-18T23:23:42;77.80;;;37.97;;
12308;SDS011;6217;48.150;17.142;2022-12-18T23:27:58;89.45;;;40.97;;
12308;SDS011;6217;48.150;17.142;2022-12-18T23:32:03;76.25;;;38.58;;
12308;SDS011;6217;48.150;17.142;2022-12-18T23:36:12;98.93;;;44.55;;
12308;SDS011;6217;48.150;17.142;2022-12-18T23:40:22;76.05;;;35.97;;
12308;SDS011;6217;48.150;17.142;2022-12-18T23:44:28;84.43;;;39.42;;
12308;SDS011;6217;48.150;17.142;2022-12-18T23:48:33;91.47;;;40.58;;
12308;SDS011;6217;48.150;17.142;2022-12-18T23:52:39;77.07;;;35.25;;
12308;SDS011;6217;48.150;17.142;2022-12-18T23:56:45;82.38;;;36.40;;
